Time;durP1;ratioP1;P1;durP2;ratioP2;P2;SDS_P1;SDS_P2;PMS_P1;PMS_P2;Temp;Humidity;BMP_temperature;BMP_pressure;BME280_temperature;BME280_humidity;BME280_pressure;Samples;Min_cycle;Max_cycle;Signal;HPM_P1;HPM_P2
2022/06/20 00:00:30;;;;;;;13.68;10.75;;;;;;;;;;5028311;28;20033;-68
2022/06/20 00:02:58;;;;;;;13.10;10.77;;;;;;;;;;5022367;28;20037;-68
2022/06/20 00:05:27;;;;;;;14.07;11.38;;;;;;;;;;5027728;28;20026;-67
2022/06/20 00:07:53;;;;;;;;;;;;;;;;;;5026204;28;20037;-67
2022/06/20 00:10:21;;;;;;;19.08;10.65;;;;;;;;;;5027135;28;20292;-66
2022/06/20 00:12:48;;;;;;;13.25;10.05;;;;;;;;;;5026642;28;20108;-68
2022/06/20 00:15:23;;;;;;;15.05;9.75;;;;;;;;;;5028388;28;20029;-68
2022/06/20 00:17:49;;;;;;;13.52;10.30;;;;;;;;;;5030871;28;20041;-67
2022/06/20 00:20:15;;;;;;;13.75;9.45;;;;;;;;;;5025931;28;20034;-68
2022/06/20 00:22:40;;;;;;;16.10;9.70;;;;;;;;;;5027488;28;20044;-69
2022/06/20 00:25:06;;;;;;;13.40;10.18;;;;;;;;;;5028305;28;20037;-65
2022/06/20 00:27:32;;;;;;;13.20;9.77;;;;;;;;;;5025421;28;20421;-66
2022/06/20 00:29:58;;;;;;;14.73;10.00;;;;;;;;;;5025702;28;20037;-67
2022/06/20 00:32:24;;;;;;;16.00;10.02;;;;;;;;;;5029009;28;20524;-68
2022/06/20 00:34:50;;;;;;;17.42;10.55;;;;;;;;;;5027995;28;20033;-68
2022/06/20 00:37:19;;;;;;;16.55;10.98;;;;;;;;;;5028374;28;20104;-68
2022/06/20 00:39:46;;;;;;;14.65;10.15;;;;;;;;;;5027241;28;20619;-67
2022/06/20 00:42:12;;;;;;;15.77;10.35;;;;;;;;;;5027570;28;20077;-67
2022/06/20 00:44:59;;;;;;;12.57;10.20;;;;;;;;;;5027673;28;20083;-66
2022/06/20 00:47:43;;;;;;;16.65;10.77;;;;;;;;;;5024489;28;20330;-67
2022/06/20 00:50:30;;;;;;;12.50;9.80;;;;;;;;;;5029399;28;20046;-67
2022/06/20 00:53:31;;;;;;;20.05;11.60;;;;;;;;;;5025247;28;20044;-67
2022/06/20 00:56:22;;;;;;;16.77;10.45;;;;;;;;;;5028014;28;20078;-66
2022/06/20 00:59:12;;;;;;;15.35;10.60;;;;;;;;;;5025043;28;20048;-67
2022/06/20 01:01:58;;;;;;;17.85;10.70;;;;;;;;;;5026530;28;20503;-67
2022/06/20 01:04:55;;;;;;;15.70;10.30;;;;;;;;;;5026906;28;20049;-68
2022/06/20 01:08:03;;;;;;;11.20;9.85;;;;;;;;;;5023322;28;20243;-67
2022/06/20 01:11:04;;;;;;;16.15;10.98;;;;;;;;;;5024126;28;20103;-66
2022/06/20 01:13:49;;;;;;;12.98;10.93;;;;;;;;;;5029426;28;20048;-68
2022/06/20 01:16:34;;;;;;;15.70;10.73;;;;;;;;;;5022614;28;20052;-67
2022/06/20 01:19:43;;;;;;;15.38;10.75;;;;;;;;;;5026583;28;20514;-66
2022/06/20 01:22:30;;;;;;;15.38;10.75;;;;;;;;;;5027384;28;20056;-66
2022/06/20 01:25:14;;;;;;;13.55;10.07;;;;;;;;;;5024207;28;20098;-67
2022/06/20 01:27:59;;;;;;;14.85;10.57;;;;;;;;;;5026141;28;20055;-66
2022/06/20 01:30:52;;;;;;;13.15;10.20;;;;;;;;;;5027767;28;20107;-67
2022/06/20 01:33:37;;;;;;;14.52;10.80;;;;;;;;;;4966800;28;20046;-67
2022/06/20 01:39:25;;;;;;;11.95;10.57;;;;;;;;;;4969747;28;20680;-68
2022/06/20 01:42:21;;;;;;;19.10;11.00;;;;;;;;;;4969611;28;20088;-67
2022/06/20 01:48:16;;;;;;;17.83;10.63;;;;;;;;;;4972643;28;20077;-67
2022/06/20 01:51:02;;;;;;;15.70;11.10;;;;;;;;;;4966877;28;20049;-68
2022/06/20 01:53:48;;;;;;;15.13;10.32;;;;;;;;;;4975273;28;20133;-67
2022/06/20 01:56:32;;;;;;;15.77;10.80;;;;;;;;;;4971102;28;20628;-67
2022/06/20 01:59:35;;;;;;;13.38;11.00;;;;;;;;;;4967234;28;20049;-67
2022/06/20 02:02:20;;;;;;;18.17;11.32;;;;;;;;;;4974661;28;20041;-68
2022/06/20 02:05:07;;;;;;;15.32;11.00;;;;;;;;;;4969562;28;20096;-67
2022/06/20 02:07:53;;;;;;;13.07;10.93;;;;;;;;;;4971347;28;20517;-67
2022/06/20 02:10:44;;;;;;;17.05;11.02;;;;;;;;;;4974772;28;20297;-67
2022/06/20 02:13:31;;;;;;;15.70;10.50;;;;;;;;;;4960702;28;20066;-67
2022/06/20 02:16:18;;;;;;;15.10;10.60;;;;;;;;;;4974024;28;20449;-67
2022/06/20 02:19:05;;;;;;;15.07;11.32;;;;;;;;;;4973240;28;20512;-67
2022/06/20 02:21:53;;;;;;;17.20;10.75;;;;;;;;;;4970795;28;20037;-67
2022/06/20 02:24:42;;;;;;;15.40;10.55;;;;;;;;;;4976955;28;20041;-67
2022/06/20 02:27:28;;;;;;;;;;;;;;;;;;4974955;28;20042;-67
2022/06/20 02:30:14;;;;;;;14.25;11.27;;;;;;;;;;4978642;28;19921;-67
2022/06/20 02:33:07;;;;;;;17.08;10.60;;;;;;;;;;4971016;28;20123;-67
2022/06/20 02:35:56;;;;;;;18.77;11.00;;;;;;;;;;4974421;28;20041;-67
2022/06/20 02:38:41;;;;;;;14.98;11.35;;;;;;;;;;4973089;28;23088;-67
2022/06/20 02:41:29;;;;;;;12.60;10.73;;;;;;;;;;4982694;28;20046;-67
2022/06/20 02:44:17;;;;;;;16.10;10.47;;;;;;;;;;4975277;28;20037;-67
2022/06/20 02:47:07;;;;;;;14.02;11.48;;;;;;;;;;4978053;28;20065;-67
2022/06/20 02:49:54;;;;;;;14.95;10.20;;;;;;;;;;4979427;28;20604;-67
2022/06/20 02:53:06;;;;;;;14.15;10.70;;;;;;;;;;4974202;28;20520;-67
2022/06/20 02:55:51;;;;;;;18.15;10.68;;;;;;;;;;4981354;28;20069;-67
2022/06/20 02:58:40;;;;;;;15.52;10.35;;;;;;;;;;4976892;28;20127;-69
2022/06/20 03:01:35;;;;;;;23.85;11.27;;;;;;;;;;4970264;28;20045;-70
2022/06/20 03:04:23;;;;;;;19.73;11.02;;;;;;;;;;4968787;28;20042;-70
2022/06/20 03:07:23;;;;;;;17.98;11.32;;;;;;;;;;4974455;28;20458;-68
2022/06/20 03:10:25;;;;;;;23.05;11.30;;;;;;;;;;4968664;28;20061;-68
2022/06/20 03:13:11;;;;;;;20.50;11.60;;;;;;;;;;4971960;28;20117;-70
2022/06/20 03:15:55;;;;;;;19.48;12.70;;;;;;;;;;4969108;28;20181;-71
2022/06/20 03:18:41;;;;;;;17.08;11.30;;;;;;;;;;4978833;28;20093;-70
2022/06/20 03:21:31;;;;;;;24.60;12.20;;;;;;;;;;4973239;28;20089;-71
2022/06/20 03:24:18;;;;;;;18.23;12.63;;;;;;;;;;4965980;28;20482;-70
2022/06/20 03:27:05;;;;;;;19.08;11.85;;;;;;;;;;4966731;28;20086;-71
2022/06/20 03:29:54;;;;;;;17.98;13.90;;;;;;;;;;4974271;28;20172;-70
2022/06/20 03:32:38;;;;;;;;;;;;;;;;;;4967784;28;20577;-69
2022/06/20 03:35:23;;;;;;;18.75;12.77;;;;;;;;;;4972608;28;19959;-70
2022/06/20 03:38:08;;;;;;;15.07;12.27;;;;;;;;;;4974132;28;20045;-70
2022/06/20 03:40:52;;;;;;;22.33;13.95;;;;;;;;;;4975257;28;20098;-70
2022/06/20 03:43:39;;;;;;;18.58;13.43;;;;;;;;;;4973958;28;20193;-69
2022/06/20 03:46:28;;;;;;;17.67;13.25;;;;;;;;;;4971255;28;20097;-69
2022/06/20 03:49:12;;;;;;;;;;;;;;;;;;4975105;28;20548;-71
2022/06/20 03:52:04;;;;;;;23.88;12.68;;;;;;;;;;4979201;28;19924;-70
2022/06/20 03:54:57;;;;;;;19.17;13.00;;;;;;;;;;4969871;28;20692;-69
2022/06/20 03:58:15;;;;;;;19.30;14.15;;;;;;;;;;4974706;28;20134;-69
2022/06/20 04:01:11;;;;;;;16.85;15.00;;;;;;;;;;4970079;28;20069;-68
2022/06/20 04:04:02;;;;;;;23.95;14.90;;;;;;;;;;4974864;28;20081;-68
2022/06/20 04:07:01;;;;;;;28.42;14.05;;;;;;;;;;4969435;28;20112;-68
2022/06/20 04:13:18;;;;;;;22.45;14.15;;;;;;;;;;4968832;28;20050;-68
2022/06/20 04:16:09;;;;;;;17.08;13.38;;;;;;;;;;4968822;28;20118;-68
2022/06/20 04:19:22;;;;;;;20.50;14.30;;;;;;;;;;4971924;28;20130;-69
2022/06/20 04:22:20;;;;;;;24.25;14.50;;;;;;;;;;4965913;28;20049;-69
2022/06/20 04:25:09;;;;;;;19.88;13.73;;;;;;;;;;4963731;28;20398;-69
2022/06/20 04:27:59;;;;;;;23.35;14.52;;;;;;;;;;4971071;28;20556;-69
2022/06/20 04:30:55;;;;;;;28.45;14.73;;;;;;;;;;4966399;28;20735;-69
2022/06/20 04:33:51;;;;;;;22.95;15.13;;;;;;;;;;4966476;28;20097;-70
2022/06/20 04:36:46;;;;;;;19.73;14.10;;;;;;;;;;4970697;28;20041;-69
2022/06/20 04:39:47;;;;;;;22.33;14.10;;;;;;;;;;4968957;28;20089;-69
2022/06/20 04:42:44;;;;;;;24.08;14.80;;;;;;;;;;4962148;28;20104;-69
2022/06/20 04:45:40;;;;;;;20.77;13.63;;;;;;;;;;4972060;28;20527;-69
2022/06/20 04:48:25;;;;;;;21.63;14.70;;;;;;;;;;4970342;28;20054;-68
2022/06/20 04:51:15;;;;;;;22.50;14.40;;;;;;;;;;4967040;28;20138;-68
2022/06/20 04:53:59;;;;;;;19.15;14.95;;;;;;;;;;4963960;28;20041;-67
2022/06/20 04:56:44;;;;;;;22.98;15.43;;;;;;;;;;4970150;28;20106;-67
2022/06/20 04:59:31;;;;;;;20.23;15.38;;;;;;;;;;4968203;28;20635;-68
2022/06/20 05:02:20;;;;;;;22.77;16.33;;;;;;;;;;4966287;28;20045;-68
2022/06/20 05:05:04;;;;;;;23.02;16.55;;;;;;;;;;4963827;28;20089;-67
2022/06/20 05:07:50;;;;;;;25.33;16.15;;;;;;;;;;4971599;28;20073;-67
2022/06/20 05:10:39;;;;;;;23.75;16.15;;;;;;;;;;4968469;28;20089;-67
2022/06/20 05:13:29;;;;;;;;;;;;;;;;;;4968374;28;20549;-67
2022/06/20 05:16:18;;;;;;;22.30;15.77;;;;;;;;;;4972221;28;19921;-67
2022/06/20 05:19:06;;;;;;;;;;;;;;;;;;4965143;28;20177;-67
2022/06/20 05:21:55;;;;;;;19.52;16.25;;;;;;;;;;4970173;28;19920;-67
2022/06/20 05:24:40;;;;;;;20.77;16.15;;;;;;;;;;4966288;28;20061;-67
2022/06/20 05:27:39;;;;;;;19.35;14.68;;;;;;;;;;4967559;28;20086;-67
2022/06/20 05:30:26;;;;;;;20.42;16.13;;;;;;;;;;4969028;28;20042;-67
2022/06/20 05:33:32;;;;;;;21.55;16.58;;;;;;;;;;4968438;28;20166;-67
2022/06/20 05:36:03;;;;;;;21.02;16.73;;;;;;;;;;4967740;28;20621;-67
2022/06/20 05:38:43;;;;;;;19.35;17.17;;;;;;;;;;4972090;28;20128;-68
2022/06/20 05:41:15;;;;;;;21.98;18.02;;;;;;;;;;4966610;28;20043;-68
2022/06/20 05:43:40;;;;;;;18.95;16.95;;;;;;;;;;4968986;28;20632;-68
2022/06/20 05:46:14;;;;;;;24.02;17.92;;;;;;;;;;4969305;28;20054;-68
2022/06/20 05:48:55;;;;;;;21.65;18.85;;;;;;;;;;4970192;28;20521;-68
2022/06/20 05:51:24;;;;;;;26.77;19.23;;;;;;;;;;4965585;28;20062;-68
2022/06/20 05:54:01;;;;;;;22.50;17.45;;;;;;;;;;4967785;28;20382;-68
2022/06/20 05:56:39;;;;;;;28.70;17.17;;;;;;;;;;4968102;28;20050;-67
2022/06/20 05:59:06;;;;;;;28.00;18.13;;;;;;;;;;4966854;28;20034;-67
2022/06/20 06:01:40;;;;;;;27.33;16.90;;;;;;;;;;4963936;28;20121;-67
2022/06/20 06:04:26;;;;;;;25.85;17.25;;;;;;;;;;4971211;28;20039;-68
2022/06/20 06:07:16;;;;;;;23.00;17.38;;;;;;;;;;4966517;28;20034;-68
2022/06/20 06:09:49;;;;;;;20.92;16.95;;;;;;;;;;4966015;28;20035;-67
2022/06/20 06:12:40;;;;;;;25.25;16.83;;;;;;;;;;4967848;28;20031;-68
2022/06/20 06:15:15;;;;;;;21.73;16.52;;;;;;;;;;4968180;28;20049;-67
2022/06/20 06:17:51;;;;;;;24.38;17.35;;;;;;;;;;4963703;28;20441;-67
2022/06/20 06:20:20;;;;;;;23.58;16.58;;;;;;;;;;4966360;28;20054;-67
2022/06/20 06:22:51;;;;;;;21.48;16.88;;;;;;;;;;4969609;28;20039;-67
2022/06/20 06:25:28;;;;;;;26.30;17.23;;;;;;;;;;4966993;28;20063;-68
2022/06/20 06:28:00;;;;;;;24.85;16.73;;;;;;;;;;4964361;28;20048;-68
2022/06/20 06:30:45;;;;;;;27.75;18.52;;;;;;;;;;4964773;28;20513;-68
2022/06/20 06:33:22;;;;;;;25.08;17.30;;;;;;;;;;4968189;28;20037;-68
2022/06/20 06:35:57;;;;;;;28.42;17.27;;;;;;;;;;4965719;28;20066;-68
2022/06/20 06:38:36;;;;;;;19.75;16.15;;;;;;;;;;4965910;28;20050;-68
2022/06/20 06:41:06;;;;;;;21.52;14.77;;;;;;;;;;4966883;28;20549;-68
2022/06/20 06:43:38;;;;;;;19.90;15.50;;;;;;;;;;4966639;28;20046;-68
2022/06/20 06:46:14;;;;;;;16.00;13.88;;;;;;;;;;4965481;28;20113;-68
2022/06/20 06:48:50;;;;;;;17.75;14.55;;;;;;;;;;4964480;28;20129;-68
2022/06/20 06:51:28;;;;;;;20.15;14.38;;;;;;;;;;4970665;28;20050;-68
2022/06/20 06:54:26;;;;;;;20.10;13.57;;;;;;;;;;4964049;28;20035;-68
2022/06/20 06:57:28;;;;;;;18.40;15.00;;;;;;;;;;4965949;28;20034;-68
2022/06/20 07:00:02;;;;;;;21.42;13.77;;;;;;;;;;4972416;28;20053;-68
2022/06/20 07:02:30;;;;;;;20.17;13.02;;;;;;;;;;4965407;28;20121;-68
2022/06/20 07:05:19;;;;;;;16.73;13.13;;;;;;;;;;4967261;28;20608;-68
2022/06/20 07:07:52;;;;;;;19.05;14.88;;;;;;;;;;4963993;28;20121;-68
2022/06/20 07:10:22;;;;;;;19.95;13.93;;;;;;;;;;4972341;28;20023;-68
2022/06/20 07:12:51;;;;;;;17.25;13.00;;;;;;;;;;4969863;28;20080;-68
2022/06/20 07:15:19;;;;;;;;;;;;;;;;;;4968446;28;20042;-68
2022/06/20 07:17:52;;;;;;;20.85;14.00;;;;;;;;;;4976788;28;19925;-68
2022/06/20 07:20:20;;;;;;;22.02;15.43;;;;;;;;;;4971293;28;20550;-68
2022/06/20 07:22:47;;;;;;;22.08;15.95;;;;;;;;;;4969017;28;20240;-68
2022/06/20 07:25:19;;;;;;;20.98;14.77;;;;;;;;;;4973271;28;20031;-68
2022/06/20 07:28:02;;;;;;;23.73;15.70;;;;;;;;;;4972134;28;20027;-68
2022/06/20 07:30:36;;;;;;;18.98;14.52;;;;;;;;;;4965180;28;20062;-68
2022/06/20 07:33:17;;;;;;;18.58;15.98;;;;;;;;;;4972011;28;20038;-67
2022/06/20 07:35:51;;;;;;;22.92;15.32;;;;;;;;;;4969647;28;20486;-67
2022/06/20 07:38:29;;;;;;;21.77;15.52;;;;;;;;;;4969978;28;20405;-68
2022/06/20 07:41:13;;;;;;;18.20;13.65;;;;;;;;;;4969138;28;20064;-67
2022/06/20 07:43:47;;;;;;;17.90;14.00;;;;;;;;;;4968483;28;20038;-68
2022/06/20 07:46:21;;;;;;;21.10;14.30;;;;;;;;;;4969464;28;20045;-68
2022/06/20 07:48:50;;;;;;;20.20;13.10;;;;;;;;;;4968073;28;20058;-68
2022/06/20 07:51:23;;;;;;;14.38;12.15;;;;;;;;;;4970696;28;20034;-68
2022/06/20 07:53:58;;;;;;;21.50;13.07;;;;;;;;;;4972044;28;20085;-69
2022/06/20 07:56:30;;;;;;;19.73;13.15;;;;;;;;;;4968925;28;20144;-69
2022/06/20 07:59:11;;;;;;;18.85;11.75;;;;;;;;;;4968280;28;20081;-69
2022/06/20 08:01:45;;;;;;;15.75;11.73;;;;;;;;;;4972569;28;20043;-69
2022/06/20 08:04:11;;;;;;;16.60;12.38;;;;;;;;;;4970686;28;20728;-68
2022/06/20 08:07:01;;;;;;;18.63;11.98;;;;;;;;;;4969284;28;20034;-69
2022/06/20 08:09:53;;;;;;;16.48;11.68;;;;;;;;;;4969409;28;20049;-68
2022/06/20 08:12:30;;;;;;;17.13;11.95;;;;;;;;;;4972884;28;20097;-68
2022/06/20 08:15:03;;;;;;;18.73;11.48;;;;;;;;;;4969559;28;20039;-69
2022/06/20 08:17:30;;;;;;;14.98;11.18;;;;;;;;;;4969044;28;20030;-69
2022/06/20 08:19:57;;;;;;;16.67;11.27;;;;;;;;;;4967507;28;20065;-69
2022/06/20 08:22:34;;;;;;;16.00;10.55;;;;;;;;;;4972064;28;20042;-69
2022/06/20 08:25:12;;;;;;;12.25;9.93;;;;;;;;;;4966287;28;20367;-69
2022/06/20 08:27:45;;;;;;;13.18;10.45;;;;;;;;;;4966648;28;20038;-69
2022/06/20 08:30:18;;;;;;;14.10;11.00;;;;;;;;;;4973577;28;20031;-69
2022/06/20 08:32:47;;;;;;;17.13;11.48;;;;;;;;;;4968513;28;20034;-70
2022/06/20 08:35:29;;;;;;;18.45;10.90;;;;;;;;;;4967912;28;20474;-69
2022/06/20 08:38:12;;;;;;;11.93;9.80;;;;;;;;;;4969231;28;20482;-69
2022/06/20 08:40:51;;;;;;;14.85;10.43;;;;;;;;;;4970853;28;20129;-71
2022/06/20 08:43:32;;;;;;;15.57;9.63;;;;;;;;;;4963504;28;20404;-70
2022/06/20 08:46:10;;;;;;;15.57;9.52;;;;;;;;;;4966295;28;20045;-69
2022/06/20 08:49:07;;;;;;;15.57;9.60;;;;;;;;;;4971272;28;20065;-71
2022/06/20 08:52:08;;;;;;;17.35;8.95;;;;;;;;;;4967415;28;20533;-69
2022/06/20 08:55:03;;;;;;;11.30;9.98;;;;;;;;;;4966953;28;20417;-68
2022/06/20 08:57:54;;;;;;;15.23;10.07;;;;;;;;;;4971173;28;20031;-67
2022/06/20 09:00:31;;;;;;;15.95;8.32;;;;;;;;;;4964905;28;20055;-67
2022/06/20 09:03:32;;;;;;;17.00;9.32;;;;;;;;;;4966257;28;20034;-66
2022/06/20 09:06:09;;;;;;;15.00;8.68;;;;;;;;;;4968279;28;20058;-68
2022/06/20 09:08:43;;;;;;;13.87;8.50;;;;;;;;;;4976116;28;20115;-68
2022/06/20 09:11:21;;;;;;;13.65;9.15;;;;;;;;;;4965471;28;20097;-67
2022/06/20 09:13:53;;;;;;;11.27;7.90;;;;;;;;;;4964988;28;20047;-67
2022/06/20 09:16:30;;;;;;;8.95;7.65;;;;;;;;;;4968165;28;20039;-67
2022/06/20 09:19:14;;;;;;;12.13;8.95;;;;;;;;;;4971954;28;20031;-67
2022/06/20 09:22:18;;;;;;;11.35;8.85;;;;;;;;;;4970160;28;20039;-66
2022/06/20 09:24:59;;;;;;;13.88;8.35;;;;;;;;;;4970649;28;20114;-67
2022/06/20 09:27:44;;;;;;;13.95;8.45;;;;;;;;;;4970336;28;20042;-67
2022/06/20 09:30:30;;;;;;;15.95;8.50;;;;;;;;;;4966852;28;20037;-67
2022/06/20 09:33:18;;;;;;;11.98;9.20;;;;;;;;;;4966335;28;20065;-67
2022/06/20 09:36:11;;;;;;;15.77;9.67;;;;;;;;;;4967206;28;20046;-67
2022/06/20 09:38:52;;;;;;;15.43;9.00;;;;;;;;;;4968351;28;20229;-67
2022/06/20 09:41:50;;;;;;;11.93;9.07;;;;;;;;;;4966627;28;20548;-66
2022/06/20 09:44:28;;;;;;;17.83;9.50;;;;;;;;;;4948021;28;20050;-66
2022/06/20 09:47:19;;;;;;;13.32;8.80;;;;;;;;;;4967473;28;21129;-67
2022/06/20 09:50:01;;;;;;;11.40;8.93;;;;;;;;;;4950003;28;20435;-67
2022/06/20 09:52:48;;;;;;;13.02;8.73;;;;;;;;;;4963079;28;20034;-67
2022/06/20 09:55:21;;;;;;;13.18;9.27;;;;;;;;;;4967838;28;20038;-67
2022/06/20 09:58:08;;;;;;;15.40;9.10;;;;;;;;;;4965679;28;20169;-66
2022/06/20 10:01:01;;;;;;;12.33;8.77;;;;;;;;;;4966066;28;20406;-67
2022/06/20 10:03:56;;;;;;;15.15;8.38;;;;;;;;;;4970014;28;21358;-67
2022/06/20 10:06:47;;;;;;;9.85;8.40;;;;;;;;;;4966529;28;20051;-68
2022/06/20 10:09:27;;;;;;;15.70;8.68;;;;;;;;;;4968395;28;20413;-67
2022/06/20 10:12:01;;;;;;;10.18;7.68;;;;;;;;;;4970670;28;20038;-67
2022/06/20 10:14:30;;;;;;;11.30;7.78;;;;;;;;;;4962378;28;20441;-67
2022/06/20 10:17:14;;;;;;;12.55;8.23;;;;;;;;;;4969632;28;20041;-67
2022/06/20 10:19:54;;;;;;;10.60;8.13;;;;;;;;;;4964886;28;20085;-67
2022/06/20 10:23:02;;;;;;;12.38;8.18;;;;;;;;;;4969047;28;20397;-67
2022/06/20 10:25:43;;;;;;;13.85;8.50;;;;;;;;;;4957678;28;20046;-67
2022/06/20 10:28:15;;;;;;;10.52;8.35;;;;;;;;;;4967881;28;20133;-67
2022/06/20 10:30:58;;;;;;;12.63;9.18;;;;;;;;;;4964195;28;20126;-67
2022/06/20 10:33:24;;;;;;;19.50;10.00;;;;;;;;;;4964362;28;20129;-67
2022/06/20 10:36:17;;;;;;;11.20;7.78;;;;;;;;;;4968965;28;20114;-67
2022/06/20 10:38:54;;;;;;;11.70;8.85;;;;;;;;;;4970793;28;20050;-67
2022/06/20 10:41:58;;;;;;;12.30;8.35;;;;;;;;;;4969757;28;20048;-67
2022/06/20 10:44:30;;;;;;;11.60;7.93;;;;;;;;;;4974400;28;20058;-67
2022/06/20 10:47:08;;;;;;;11.05;8.52;;;;;;;;;;4967815;28;20042;-67
2022/06/20 10:49:37;;;;;;;13.77;8.85;;;;;;;;;;4972512;28;20632;-67
2022/06/20 10:52:28;;;;;;;10.18;7.90;;;;;;;;;;4967788;28;20166;-67
2022/06/20 10:55:23;;;;;;;11.80;8.60;;;;;;;;;;4964217;28;20081;-67
2022/06/20 10:58:02;;;;;;;9.98;8.07;;;;;;;;;;4961698;28;20117;-67
2022/06/20 11:00:34;;;;;;;9.30;7.78;;;;;;;;;;4973246;28;20474;-67
2022/06/20 11:03:33;;;;;;;15.55;8.48;;;;;;;;;;4967409;28;20054;-67
2022/06/20 11:06:31;;;;;;;9.27;8.10;;;;;;;;;;4965658;28;20046;-66
2022/06/20 11:09:19;;;;;;;12.65;8.85;;;;;;;;;;4968622;28;20447;-67
2022/06/20 11:11:58;;;;;;;10.82;7.85;;;;;;;;;;4969971;28;20628;-67
2022/06/20 11:14:53;;;;;;;11.23;8.23;;;;;;;;;;4967176;28;20038;-68
2022/06/20 11:17:45;;;;;;;13.90;8.65;;;;;;;;;;4974898;28;20110;-66
2022/06/20 11:20:42;;;;;;;11.38;8.27;;;;;;;;;;4974529;28;20030;-67
2022/06/20 11:23:14;;;;;;;11.43;7.25;;;;;;;;;;4967061;28;20045;-66
2022/06/20 11:25:54;;;;;;;12.63;7.72;;;;;;;;;;4975623;28;20039;-66
2022/06/20 11:28:30;;;;;;;10.55;7.60;;;;;;;;;;4967755;28;20578;-66
2022/06/20 11:31:05;;;;;;;8.57;7.78;;;;;;;;;;4965551;28;20509;-68
2022/06/20 11:34:01;;;;;;;8.90;8.00;;;;;;;;;;4972093;28;20752;-67
2022/06/20 11:36:51;;;;;;;9.27;7.88;;;;;;;;;;4970146;28;20100;-66
2022/06/20 11:39:54;;;;;;;13.30;9.02;;;;;;;;;;4967246;28;20058;-66
2022/06/20 11:42:43;;;;;;;9.07;7.53;;;;;;;;;;4970376;28;20042;-66
2022/06/20 11:45:21;;;;;;;;;;;;;;;;;;4969016;28;20046;-66
2022/06/20 11:48:12;;;;;;;9.80;8.80;;;;;;;;;;4969769;28;19973;-66
2022/06/20 11:50:59;;;;;;;8.85;7.60;;;;;;;;;;4965943;28;20510;-66
2022/06/20 11:53:39;;;;;;;8.10;7.43;;;;;;;;;;4968088;28;20094;-68
2022/06/20 11:56:22;;;;;;;9.45;7.35;;;;;;;;;;4964862;28;20552;-66
2022/06/20 11:59:12;;;;;;;11.18;7.88;;;;;;;;;;4970317;28;20123;-68
2022/06/20 12:02:09;;;;;;;13.13;8.10;;;;;;;;;;4963713;28;20043;-66
2022/06/20 12:04:46;;;;;;;9.38;7.80;;;;;;;;;;4970158;28;20074;-66
2022/06/20 12:07:22;;;;;;;11.25;8.38;;;;;;;;;;4966166;28;20108;-66
2022/06/20 12:09:50;;;;;;;16.42;8.88;;;;;;;;;;4966876;28;20039;-68
2022/06/20 12:12:54;;;;;;;11.73;8.68;;;;;;;;;;4969135;28;20182;-67
2022/06/20 12:15:38;;;;;;;9.05;8.00;;;;;;;;;;4962444;28;20035;-67
2022/06/20 12:18:25;;;;;;;11.05;7.95;;;;;;;;;;4964305;28;20047;-67
2022/06/20 12:23:41;;;;;;;10.00;7.97;;;;;;;;;;4960092;28;20038;-67
2022/06/20 12:26:12;;;;;;;10.70;7.82;;;;;;;;;;4962913;28;20131;-67
2022/06/20 12:28:42;;;;;;;14.10;8.35;;;;;;;;;;4964006;28;20046;-67
2022/06/20 12:31:07;;;;;;;8.15;7.35;;;;;;;;;;4969667;28;20038;-67
2022/06/20 12:33:36;;;;;;;13.23;8.25;;;;;;;;;;4962661;28;20045;-66
2022/06/20 12:36:19;;;;;;;9.75;7.43;;;;;;;;;;4963986;28;20503;-66
2022/06/20 12:39:13;;;;;;;8.48;7.30;;;;;;;;;;4957964;28;20086;-67
2022/06/20 12:41:44;;;;;;;7.10;6.50;;;;;;;;;;4962739;28;20093;-67
2022/06/20 12:44:36;;;;;;;8.18;6.72;;;;;;;;;;4965294;28;20187;-67
2022/06/20 12:47:13;;;;;;;7.70;7.00;;;;;;;;;;4966056;28;20044;-66
2022/06/20 12:49:57;;;;;;;8.38;6.88;;;;;;;;;;4970819;28;20026;-67
2022/06/20 12:52:43;;;;;;;8.30;7.47;;;;;;;;;;4969871;28;20457;-67
2022/06/20 12:55:23;;;;;;;11.45;7.60;;;;;;;;;;4966903;28;20043;-67
2022/06/20 12:58:25;;;;;;;10.48;7.95;;;;;;;;;;4969036;28;20080;-67
2022/06/20 13:01:08;;;;;;;9.18;7.80;;;;;;;;;;4964436;28;20035;-66
2022/06/20 13:04:00;;;;;;;10.07;7.95;;;;;;;;;;4965869;28;20545;-67
2022/06/20 13:06:53;;;;;;;9.48;7.80;;;;;;;;;;4966424;28;20078;-66
2022/06/20 13:09:41;;;;;;;11.43;7.90;;;;;;;;;;4969970;28;20042;-67
2022/06/20 13:12:19;;;;;;;9.02;7.85;;;;;;;;;;4965543;28;20031;-67
2022/06/20 13:15:22;;;;;;;9.82;7.45;;;;;;;;;;4972446;28;20544;-67
2022/06/20 13:18:19;;;;;;;11.43;7.97;;;;;;;;;;4968070;28;20106;-67
2022/06/20 13:20:51;;;;;;;9.95;8.38;;;;;;;;;;4972607;28;20032;-66
2022/06/20 13:23:32;;;;;;;12.75;7.93;;;;;;;;;;4964117;28;20045;-67
2022/06/20 13:26:26;;;;;;;10.77;8.68;;;;;;;;;;4979653;28;20039;-67
2022/06/20 13:29:20;;;;;;;10.55;7.93;;;;;;;;;;4966903;28;20121;-67
2022/06/20 13:31:52;;;;;;;10.90;7.68;;;;;;;;;;4964335;28;20117;-67
2022/06/20 13:34:24;;;;;;;8.45;7.55;;;;;;;;;;4972397;28;20046;-67
2022/06/20 13:37:03;;;;;;;13.50;7.95;;;;;;;;;;4963330;28;20129;-67
2022/06/20 13:39:50;;;;;;;;;;;;;;;;;;4967976;28;20038;-67
2022/06/20 13:42:31;;;;;;;12.07;8.30;;;;;;;;;;4969799;28;19918;-67
2022/06/20 13:45:09;;;;;;;10.25;7.50;;;;;;;;;;4967085;28;20030;-67
2022/06/20 13:48:09;;;;;;;8.70;7.88;;;;;;;;;;4965040;28;20037;-67
2022/06/20 13:50:42;;;;;;;8.57;7.78;;;;;;;;;;4967504;28;20038;-66
2022/06/20 13:53:08;;;;;;;13.85;7.97;;;;;;;;;;4965185;28;20074;-66
2022/06/20 13:55:55;;;;;;;9.40;7.40;;;;;;;;;;4963694;28;20047;-66
2022/06/20 13:58:40;;;;;;;8.07;7.28;;;;;;;;;;4967708;28;20046;-66
2022/06/20 14:01:13;;;;;;;12.02;8.00;;;;;;;;;;4961517;28;20055;-66
2022/06/20 14:03:56;;;;;;;10.63;7.03;;;;;;;;;;4966765;28;20062;-66
2022/06/20 14:06:26;;;;;;;12.55;7.40;;;;;;;;;;4963545;28;20054;-66
2022/06/20 14:09:01;;;;;;;14.68;9.18;;;;;;;;;;4968250;28;20093;-66
2022/06/20 14:11:40;;;;;;;13.70;8.48;;;;;;;;;;4974796;28;20047;-67
2022/06/20 14:14:19;;;;;;;10.32;8.90;;;;;;;;;;4971771;28;20130;-67
2022/06/20 14:16:50;;;;;;;9.85;8.68;;;;;;;;;;4971818;28;20047;-67
2022/06/20 14:19:24;;;;;;;11.40;8.32;;;;;;;;;;4974009;28;20031;-67
2022/06/20 14:21:54;;;;;;;9.50;8.05;;;;;;;;;;4968913;28;20062;-67
2022/06/20 14:24:25;;;;;;;9.55;8.40;;;;;;;;;;4971733;28;20035;-67
2022/06/20 14:27:02;;;;;;;10.20;8.38;;;;;;;;;;4969310;28;20062;-67
2022/06/20 14:29:33;;;;;;;8.90;8.10;;;;;;;;;;4976596;28;20049;-67
2022/06/20 14:32:07;;;;;;;9.05;8.10;;;;;;;;;;4968089;28;20110;-67
2022/06/20 14:35:20;;;;;;;8.73;7.93;;;;;;;;;;4971008;28;20031;-67
2022/06/20 14:37:40;;;;;;;22.55;8.15;;;;;;;;;;4971028;28;20116;-68
2022/06/20 14:40:19;;;;;;;9.55;8.50;;;;;;;;;;4971161;28;20062;-67
2022/06/20 14:43:18;;;;;;;10.55;8.55;;;;;;;;;;4964239;28;20031;-67
2022/06/20 14:45:56;;;;;;;10.90;8.40;;;;;;;;;;4967014;28;20130;-67
2022/06/20 14:48:33;;;;;;;9.27;8.32;;;;;;;;;;4975772;28;20442;-67
2022/06/20 14:51:07;;;;;;;9.95;7.93;;;;;;;;;;4968556;28;20031;-67
2022/06/20 14:53:54;;;;;;;8.60;7.88;;;;;;;;;;4968297;28;20031;-67
2022/06/20 14:56:28;;;;;;;9.23;7.65;;;;;;;;;;4971850;28;20067;-67
2022/06/20 14:59:27;;;;;;;8.60;6.97;;;;;;;;;;4971215;28;20241;-67
2022/06/20 15:01:56;;;;;;;9.63;7.75;;;;;;;;;;4966469;28;20066;-67
2022/06/20 15:04:52;;;;;;;9.80;7.03;;;;;;;;;;4971019;28;20109;-67
2022/06/20 15:07:36;;;;;;;8.10;7.40;;;;;;;;;;4965007;28;20030;-66
2022/06/20 15:10:18;;;;;;;7.97;7.28;;;;;;;;;;4968466;28;20059;-67
2022/06/20 15:13:09;;;;;;;8.43;7.63;;;;;;;;;;4969317;28;20031;-66
2022/06/20 15:15:43;;;;;;;7.90;7.20;;;;;;;;;;4963408;28;20035;-67
2022/06/20 15:18:29;;;;;;;7.53;6.93;;;;;;;;;;4970666;28;20042;-66
2022/06/20 15:21:07;;;;;;;7.93;7.22;;;;;;;;;;4967550;28;20035;-66
2022/06/20 15:23:55;;;;;;;7.80;7.10;;;;;;;;;;4970158;28;20596;-66
2022/06/20 15:26:29;;;;;;;9.63;7.25;;;;;;;;;;4970081;28;20089;-66
2022/06/20 15:29:20;;;;;;;7.82;7.00;;;;;;;;;;4970169;28;20142;-66
2022/06/20 15:31:51;;;;;;;10.15;6.90;;;;;;;;;;4970757;28;20054;-66
2022/06/20 15:34:34;;;;;;;7.95;7.00;;;;;;;;;;4972551;28;20042;-67
2022/06/20 15:37:21;;;;;;;7.57;6.88;;;;;;;;;;4969005;28;20105;-66
2022/06/20 15:40:00;;;;;;;8.05;6.93;;;;;;;;;;4966753;28;20046;-66
2022/06/20 15:42:37;;;;;;;7.53;6.72;;;;;;;;;;4974034;28;20061;-66
2022/06/20 15:45:32;;;;;;;11.27;6.95;;;;;;;;;;4969993;28;20031;-66
2022/06/20 15:48:21;;;;;;;7.32;6.63;;;;;;;;;;4972143;28;20039;-66
2022/06/20 15:51:03;;;;;;;6.97;6.22;;;;;;;;;;4968584;28;20044;-66
2022/06/20 15:54:01;;;;;;;8.25;6.63;;;;;;;;;;4972910;28;20088;-66
2022/06/20 15:56:45;;;;;;;8.73;6.47;;;;;;;;;;4965953;28;20121;-67
2022/06/20 15:59:31;;;;;;;8.35;6.57;;;;;;;;;;4965309;28;20042;-67
2022/06/20 16:01:56;;;;;;;7.75;6.75;;;;;;;;;;4968232;28;20047;-66
2022/06/20 16:04:42;;;;;;;8.73;7.10;;;;;;;;;;4970504;28;20136;-66
2022/06/20 16:07:16;;;;;;;8.10;7.32;;;;;;;;;;4969950;28;20081;-67
2022/06/20 16:10:00;;;;;;;8.45;6.88;;;;;;;;;;4969762;28;20749;-67
2022/06/20 16:12:26;;;;;;;7.93;7.25;;;;;;;;;;4970159;28;20505;-66